createdAt,value
2019-03-10T00:00:18.207Z,80.15
2019-03-10T00:02:46.712Z,80.30
2019-03-10T00:05:15.247Z,80.44
2019-03-10T00:07:43.703Z,80.36
2019-03-10T00:10:12.325Z,80.58
2019-03-10T00:12:40.774Z,80.84
2019-03-10T00:15:11.371Z,80.84
2019-03-10T00:17:39.877Z,80.80
2019-03-10T00:20:11.817Z,80.95
2019-03-10T00:22:40.275Z,81.09
2019-03-10T00:25:10.119Z,81.10
2019-03-10T00:27:38.569Z,81.03
2019-03-10T00:30:17.863Z,81.03
2019-03-10T00:32:46.329Z,81.42
2019-03-10T00:35:14.861Z,81.69
2019-03-10T00:37:43.415Z,81.62
2019-03-10T00:40:34.568Z,81.74
2019-03-10T00:43:39.634Z,81.73
2019-03-10T00:46:30.619Z,81.73
2019-03-10T00:49:35.922Z,81.88
2019-03-10T00:52:07.390Z,82.14
2019-03-10T00:54:36.235Z,82.68
2019-03-10T00:57:04.807Z,82.73
2019-03-10T00:59:33.327Z,82.91
2019-03-10T01:02:01.862Z,83.26
2019-03-10T01:04:30.366Z,83.66
2019-03-10T01:06:58.890Z,83.93
2019-03-10T01:09:27.378Z,84.25
2019-03-10T01:11:55.938Z,84.57
2019-03-10T01:14:24.464Z,84.83
2019-03-10T01:16:52.954Z,84.73
2019-03-10T01:19:23.049Z,84.74
2019-03-10T01:21:51.928Z,84.74
2019-03-10T01:24:20.476Z,84.50
2019-03-10T01:26:48.956Z,84.50
2019-03-10T01:29:17.421Z,84.23
2019-03-10T01:32:05.593Z,84.23
2019-03-10T01:34:56.909Z,83.66
2019-03-10T01:37:25.414Z,83.33
2019-03-10T01:39:53.872Z,82.84
2019-03-10T01:42:22.341Z,82.26
2019-03-10T01:44:50.826Z,81.64
2019-03-10T01:47:19.289Z,80.95
2019-03-10T01:49:47.764Z,80.55
2019-03-10T01:52:16.255Z,79.57
2019-03-10T01:54:44.723Z,79.91
2019-03-10T01:57:13.164Z,78.81
2019-03-10T01:59:41.675Z,79.43
2019-03-10T02:02:10.134Z,79.43
2019-03-10T02:04:38.583Z,78.77
2019-03-10T02:07:07.090Z,78.53
2019-03-10T02:09:35.563Z,78.19
2019-03-10T02:12:04.014Z,77.87
2019-03-10T02:14:32.626Z,77.66
2019-03-10T02:17:01.135Z,77.43
2019-03-10T02:19:29.579Z,77.22
2019-03-10T02:21:58.065Z,77.14
2019-03-10T02:24:26.647Z,76.88
2019-03-10T02:26:55.107Z,76.22
2019-03-10T02:29:23.612Z,76.71
2019-03-10T02:31:52.058Z,76.12
2019-03-10T02:34:20.511Z,76.12
2019-03-10T02:36:49.009Z,76.29
2019-03-10T02:39:17.470Z,76.17
2019-03-10T02:41:45.928Z,76.10
2019-03-10T02:44:14.423Z,76.22
2019-03-10T02:46:42.865Z,76.22
2019-03-10T02:49:11.336Z,76.14
2019-03-10T02:51:39.834Z,75.96
2019-03-10T02:54:08.293Z,75.88
2019-03-10T02:56:36.748Z,75.90
2019-03-10T02:59:05.239Z,75.95
2019-03-10T03:01:33.681Z,75.95
2019-03-10T03:04:02.146Z,76.59
2019-03-10T03:06:30.648Z,76.59
2019-03-10T03:08:59.126Z,76.10
2019-03-10T03:11:27.671Z,76.10
2019-03-10T03:13:56.157Z,76.45
2019-03-10T03:16:24.608Z,76.40
2019-03-10T03:18:53.055Z,76.24
2019-03-10T03:21:21.551Z,76.17
2019-03-10T03:23:50.010Z,76.01
2019-03-10T03:26:19.581Z,75.79
2019-03-10T03:28:48.074Z,75.74
2019-03-10T03:31:16.546Z,75.69
2019-03-10T03:33:45.002Z,75.53
2019-03-10T03:36:19.351Z,75.51
2019-03-10T03:38:56.541Z,75.44
2019-03-10T03:41:26.071Z,75.32
2019-03-10T03:43:54.542Z,75.19
2019-03-10T03:46:22.965Z,75.04
2019-03-10T03:48:51.457Z,74.99
2019-03-10T03:51:19.905Z,75.06
2019-03-10T03:53:48.410Z,75.15
2019-03-10T03:56:16.856Z,75.20
2019-03-10T03:58:45.323Z,75.15
2019-03-10T04:01:15.418Z,75.09
2019-03-10T04:03:44.002Z,74.93
2019-03-10T04:06:12.453Z,74.88
2019-03-10T04:08:40.925Z,74.83
2019-03-10T04:11:09.387Z,74.88
2019-03-10T04:13:37.845Z,74.94
2019-03-10T04:16:06.294Z,74.83
2019-03-10T04:18:34.778Z,74.83
2019-03-10T04:21:03.234Z,75.33
2019-03-10T04:23:31.690Z,75.33
2019-03-10T04:26:00.161Z,74.86
2019-03-10T04:28:28.923Z,74.86
2019-03-10T04:30:57.376Z,75.19
2019-03-10T04:33:25.849Z,75.19
2019-03-10T04:35:54.297Z,74.65
2019-03-10T04:38:22.762Z,75.00
2019-03-10T04:40:51.253Z,74.92
2019-03-10T04:43:19.726Z,74.65
2019-03-10T04:45:48.189Z,74.65
2019-03-10T04:48:16.679Z,74.52
2019-03-10T04:50:45.144Z,74.58
2019-03-10T04:53:13.613Z,74.50
2019-03-10T04:55:46.398Z,74.34
2019-03-10T04:58:16.436Z,74.34
2019-03-10T05:00:46.524Z,74.74
2019-03-10T05:03:15.015Z,75.35
2019-03-10T05:05:43.490Z,75.33
2019-03-10T05:08:11.952Z,75.33
2019-03-10T05:10:40.446Z,75.53
2019-03-10T05:13:08.893Z,75.71
2019-03-10T05:15:37.356Z,75.71
2019-03-10T05:18:05.909Z,75.38
2019-03-10T05:20:34.366Z,75.49
2019-03-10T05:23:28.135Z,75.49
2019-03-10T05:25:57.027Z,75.53
2019-03-10T05:28:25.476Z,75.41
2019-03-10T05:30:54.075Z,75.64
2019-03-10T05:33:22.536Z,75.64
2019-03-10T05:35:50.989Z,75.50
2019-03-10T05:38:19.568Z,75.24
2019-03-10T05:40:48.021Z,75.24
2019-03-10T05:43:16.489Z,75.32
2019-03-10T05:45:44.997Z,75.32
2019-03-10T05:48:13.443Z,75.96
2019-03-10T05:50:41.892Z,76.07
2019-03-10T05:53:10.412Z,76.16
2019-03-10T05:55:38.890Z,75.97
2019-03-10T05:58:07.341Z,75.97
2019-03-10T06:00:42.804Z,76.89
2019-03-10T06:03:06.018Z,76.99
2019-03-10T06:05:34.488Z,76.99
2019-03-10T06:08:02.984Z,77.24
2019-03-10T06:10:31.450Z,77.42
2019-03-10T06:12:59.973Z,77.42
2019-03-10T06:15:28.467Z,76.97
2019-03-10T06:17:56.925Z,76.75
2019-03-10T06:20:25.371Z,76.60
2019-03-10T06:22:53.875Z,76.36
2019-03-10T06:25:22.345Z,75.87
2019-03-10T06:27:50.844Z,75.87
2019-03-10T06:30:19.334Z,75.64
2019-03-10T06:32:47.912Z,75.35
2019-03-10T06:35:16.370Z,75.21
2019-03-10T06:37:44.885Z,75.46
2019-03-10T06:40:14.000Z,75.46
2019-03-10T06:42:42.471Z,75.28
2019-03-10T06:45:11.038Z,75.12
2019-03-10T06:47:39.476Z,75.23
2019-03-10T06:50:12.245Z,75.23
2019-03-10T06:52:40.486Z,74.97
2019-03-10T06:55:09.032Z,74.97
2019-03-10T06:57:37.480Z,75.11
2019-03-10T07:00:09.394Z,74.85
2019-03-10T07:02:37.864Z,74.81
2019-03-10T07:05:08.652Z,74.66
2019-03-10T07:07:37.138Z,74.59
2019-03-10T07:10:15.772Z,74.58
2019-03-10T07:12:44.261Z,74.51
2019-03-10T07:15:13.750Z,74.41
2019-03-10T07:17:42.217Z,74.33
2019-03-10T07:20:16.527Z,74.31
2019-03-10T07:22:44.972Z,74.38
2019-03-10T07:25:13.516Z,74.17
2019-03-10T07:27:58.743Z,74.05
2019-03-10T07:30:31.645Z,74.08
2019-03-10T07:33:04.485Z,73.81
2019-03-10T07:35:35.026Z,73.49
2019-03-10T07:38:07.971Z,73.17
2019-03-10T07:40:38.127Z,72.88
2019-03-10T07:43:08.223Z,72.55
2019-03-10T07:45:41.214Z,72.17
2019-03-10T07:48:14.065Z,72.10
2019-03-10T07:50:49.649Z,72.13
2019-03-10T07:53:32.021Z,71.79
2019-03-10T07:56:17.470Z,71.44
2019-03-10T07:58:56.484Z,71.14
2019-03-10T08:01:26.582Z,71.09
2019-03-10T08:03:59.403Z,71.14
2019-03-10T08:06:38.711Z,70.66
2019-03-10T08:09:25.701Z,70.92
2019-03-10T08:12:04.630Z,71.07
2019-03-10T08:14:34.741Z,70.95
2019-03-10T08:17:11.028Z,70.68
2019-03-10T08:19:41.142Z,70.26
2019-03-10T08:22:20.264Z,70.33
2019-03-10T08:25:06.702Z,69.38
2019-03-10T08:27:36.843Z,69.00
2019-03-10T08:30:15.805Z,68.68
2019-03-10T08:32:45.984Z,68.87
2019-03-10T08:35:19.043Z,68.44
2019-03-10T08:38:05.501Z,68.21
2019-03-10T08:40:38.370Z,67.48
2019-03-10T08:43:08.470Z,67.41
2019-03-10T08:45:56.621Z,67.34
2019-03-10T08:48:29.185Z,66.80
2019-03-10T08:50:59.299Z,65.60
2019-03-10T08:53:38.675Z,65.73
2019-03-10T08:56:11.688Z,65.83
2019-03-10T08:58:41.789Z,65.71
2019-03-10T09:01:28.488Z,65.43
2019-03-10T09:03:58.576Z,65.14
2019-03-10T09:06:40.942Z,64.92
2019-03-10T09:09:11.033Z,64.70
2019-03-10T09:11:57.483Z,64.30
2019-03-10T09:14:36.423Z,64.21
2019-03-10T09:17:06.549Z,63.52
2019-03-10T09:19:45.587Z,63.18
2019-03-10T09:22:51.268Z,63.23
2019-03-10T09:25:37.471Z,63.33
2019-03-10T09:28:07.600Z,62.85
2019-03-10T09:30:50.878Z,62.87
2019-03-10T09:33:23.925Z,61.89
2019-03-10T09:35:54.012Z,60.95
2019-03-10T09:38:39.466Z,61.27
2019-03-10T09:41:24.479Z,61.13
2019-03-10T09:44:03.951Z,61.31
2019-03-10T09:46:43.016Z,60.35
2019-03-10T09:49:16.349Z,60.30
2019-03-10T09:51:46.448Z,59.90
2019-03-10T09:54:28.557Z,58.95
2019-03-10T09:57:07.748Z,58.69
2019-03-10T09:59:54.543Z,58.30
2019-03-10T10:02:27.293Z,58.28
2019-03-10T10:05:09.087Z,58.59
2019-03-10T10:07:54.171Z,59.07
2019-03-10T10:10:24.316Z,58.41
2019-03-10T10:12:54.430Z,58.29
2019-03-10T10:15:42.703Z,58.39
2019-03-10T10:18:21.286Z,57.64
2019-03-10T10:20:57.161Z,57.09
2019-03-10T10:23:33.050Z,56.70
2019-03-10T10:26:05.913Z,56.41
2019-03-10T10:28:47.892Z,55.50
2019-03-10T10:31:33.991Z,54.67
2019-03-10T10:34:19.243Z,54.99
2019-03-10T10:37:04.352Z,54.95
2019-03-10T10:39:49.442Z,54.73
2019-03-10T10:42:25.259Z,53.89
2019-03-10T10:45:01.501Z,53.40
2019-03-10T10:47:34.239Z,53.50
2019-03-10T10:50:13.971Z,52.62
2019-03-10T10:52:44.229Z,52.22
2019-03-10T10:55:17.060Z,52.73
2019-03-10T10:57:49.637Z,53.03
2019-03-10T11:00:19.810Z,53.33
2019-03-10T11:02:52.850Z,53.12
2019-03-10T11:05:23.021Z,52.84
2019-03-10T11:07:53.125Z,52.40
2019-03-10T11:10:23.243Z,52.79
2019-03-10T11:12:53.381Z,52.19
2019-03-10T11:15:25.993Z,51.88
2019-03-10T11:18:09.761Z,51.75
2019-03-10T11:20:40.035Z,52.01
2019-03-10T11:23:10.139Z,51.54
2019-03-10T11:25:40.284Z,51.61
2019-03-10T11:28:26.487Z,51.76
2019-03-10T11:30:56.621Z,51.96
2019-03-10T11:33:29.646Z,52.20
2019-03-10T11:36:11.719Z,52.19
2019-03-10T11:39:00.049Z,52.13
2019-03-10T11:41:34.088Z,52.59
2019-03-10T11:44:14.281Z,53.05
2019-03-10T11:46:47.098Z,52.62
2019-03-10T11:49:17.222Z,52.36
2019-03-10T11:51:47.307Z,52.41
2019-03-10T11:54:25.975Z,52.39
2019-03-10T11:57:05.040Z,52.66
2019-03-10T11:59:35.162Z,52.64
2019-03-10T12:02:16.180Z,52.65
2019-03-10T12:04:42.581Z,51.31
2019-03-10T12:07:12.695Z,51.13
2019-03-10T12:09:41.132Z,51.49
2019-03-10T12:12:09.597Z,51.37
2019-03-10T12:14:38.073Z,51.50
2019-03-10T12:17:06.541Z,51.64
2019-03-10T12:19:35.056Z,50.99
2019-03-10T12:22:03.524Z,50.42
2019-03-10T12:24:31.989Z,50.13
2019-03-10T12:27:00.462Z,50.45
2019-03-10T12:29:28.905Z,50.98
2019-03-10T12:31:57.363Z,51.63
2019-03-10T12:34:25.854Z,51.88
2019-03-10T12:36:54.313Z,51.88
2019-03-10T12:39:22.784Z,51.60
2019-03-10T12:41:58.577Z,50.68
2019-03-10T12:44:22.526Z,50.07
2019-03-10T12:46:51.014Z,50.04
2019-03-10T12:49:20.405Z,50.17
2019-03-10T12:51:48.872Z,49.76
2019-03-10T12:54:17.338Z,49.60
2019-03-10T12:56:45.872Z,49.59
2019-03-10T12:59:14.310Z,49.48
2019-03-10T13:01:42.757Z,49.72
2019-03-10T13:04:11.258Z,49.70
2019-03-10T13:06:39.729Z,49.85
2019-03-10T13:09:08.650Z,50.30
2019-03-10T13:11:37.188Z,50.81
2019-03-10T13:14:05.656Z,51.14
2019-03-10T13:16:34.112Z,51.30
2019-03-10T13:19:02.619Z,51.43
2019-03-10T13:21:31.089Z,51.66
2019-03-10T13:23:59.619Z,51.59
2019-03-10T13:26:28.124Z,50.55
2019-03-10T13:28:56.595Z,49.65
2019-03-10T13:31:25.063Z,48.81
2019-03-10T13:33:53.552Z,48.84
2019-03-10T13:36:22.018Z,48.96
2019-03-10T13:38:50.477Z,49.39
2019-03-10T13:41:19.072Z,49.36
2019-03-10T13:43:47.683Z,49.75
2019-03-10T13:46:16.147Z,49.49
2019-03-10T13:48:44.662Z,49.04
2019-03-10T13:51:13.127Z,49.10
2019-03-10T13:53:41.581Z,48.75
2019-03-10T13:56:10.074Z,48.41
2019-03-10T13:58:38.541Z,47.91
2019-03-10T14:01:06.998Z,47.46
2019-03-10T14:03:35.485Z,48.21
2019-03-10T14:06:04.013Z,47.41
2019-03-10T14:08:32.470Z,47.65
2019-03-10T14:11:00.975Z,48.09
2019-03-10T14:13:29.432Z,48.43
2019-03-10T14:15:57.917Z,48.27
2019-03-10T14:18:26.388Z,47.82
2019-03-10T14:20:54.847Z,48.33
2019-03-10T14:23:23.308Z,48.63
2019-03-10T14:25:51.819Z,49.01
2019-03-10T14:28:22.068Z,48.99
2019-03-10T14:30:50.466Z,49.34
2019-03-10T14:33:18.958Z,48.95
2019-03-10T14:35:47.424Z,48.29
2019-03-10T14:38:15.894Z,48.25
2019-03-10T14:40:44.400Z,48.27
2019-03-10T14:43:12.860Z,48.51
2019-03-10T14:45:42.317Z,48.81
2019-03-10T14:48:10.800Z,48.56
2019-03-10T14:50:39.262Z,48.47
2019-03-10T14:53:07.724Z,48.53
2019-03-10T14:55:36.375Z,48.94
2019-03-10T14:58:04.842Z,49.10
2019-03-10T15:00:33.304Z,49.38
2019-03-10T15:03:01.795Z,49.29
2019-03-10T15:05:30.256Z,49.31
2019-03-10T15:07:58.714Z,49.16
2019-03-10T15:10:27.203Z,49.30
2019-03-10T15:12:55.680Z,49.07
2019-03-10T15:15:24.124Z,49.24
2019-03-10T15:17:52.626Z,49.21
2019-03-10T15:20:21.834Z,49.22
2019-03-10T15:22:50.495Z,49.45
2019-03-10T15:25:20.243Z,49.68
2019-03-10T15:27:48.683Z,50.03
2019-03-10T15:30:18.772Z,50.22
2019-03-10T15:32:47.273Z,50.61
2019-03-10T15:35:15.797Z,50.70
2019-03-10T15:37:44.387Z,51.20
2019-03-10T15:40:18.084Z,51.66
2019-03-10T15:42:46.538Z,52.26
2019-03-10T15:45:18.895Z,52.87
2019-03-10T15:47:48.463Z,53.43
2019-03-10T15:50:28.222Z,53.97
2019-03-10T15:52:56.754Z,54.41
2019-03-10T15:55:25.214Z,54.75
2019-03-10T15:57:53.675Z,55.01
2019-03-10T16:00:24.294Z,55.27
2019-03-10T16:02:52.811Z,55.60
2019-03-10T16:05:21.346Z,55.87
2019-03-10T16:07:49.887Z,56.05
2019-03-10T16:10:18.484Z,56.24
2019-03-10T16:12:49.303Z,56.48
2019-03-10T16:15:21.969Z,56.99
2019-03-10T16:17:50.423Z,57.47
2019-03-10T16:20:18.866Z,57.93
2019-03-10T16:22:47.364Z,58.23
2019-03-10T16:25:16.862Z,58.55
2019-03-10T16:27:45.393Z,58.89
2019-03-10T16:30:19.845Z,59.16
2019-03-10T16:32:48.328Z,59.52
2019-03-10T16:35:17.004Z,59.60
2019-03-10T16:37:45.564Z,59.71
2019-03-10T16:40:17.203Z,59.97
2019-03-10T16:42:45.749Z,60.18
2019-03-10T16:45:19.403Z,59.83
2019-03-10T16:47:47.879Z,58.86
2019-03-10T16:50:18.588Z,59.26
2019-03-10T16:52:47.081Z,59.37
2019-03-10T16:55:15.676Z,59.27
2019-03-10T16:57:44.278Z,56.85
2019-03-10T17:00:12.927Z,55.03
2019-03-10T17:02:43.185Z,54.54
2019-03-10T17:05:18.976Z,54.51
2019-03-10T17:07:47.490Z,54.53
2019-03-10T17:10:17.684Z,54.51
2019-03-10T17:12:46.258Z,54.64
2019-03-10T17:15:18.959Z,54.77
2019-03-10T17:17:47.387Z,54.30
2019-03-10T17:20:19.355Z,54.32
2019-03-10T17:22:47.803Z,53.80
2019-03-10T17:25:16.783Z,54.30
2019-03-10T17:27:45.325Z,55.04
2019-03-10T17:30:21.621Z,56.19
2019-03-10T17:32:50.205Z,57.49
2019-03-10T17:35:19.391Z,59.43
2019-03-10T17:37:48.728Z,60.63
2019-03-10T17:40:22.286Z,61.31
2019-03-10T17:42:50.722Z,61.78
2019-03-10T17:45:20.319Z,62.62
2019-03-10T17:47:48.834Z,63.89
2019-03-10T17:50:18.143Z,64.89
2019-03-10T17:52:47.336Z,66.01
2019-03-10T17:55:17.372Z,67.22
2019-03-10T17:57:45.986Z,67.27
2019-03-10T18:00:17.738Z,67.64
2019-03-10T18:02:46.278Z,67.84
2019-03-10T18:05:14.819Z,68.39
2019-03-10T18:07:43.336Z,69.07
2019-03-10T18:10:18.544Z,69.46
2019-03-10T18:12:47.006Z,69.96
2019-03-10T18:15:18.713Z,70.40
2019-03-10T18:17:47.216Z,70.77
2019-03-10T18:20:20.854Z,70.91
2019-03-10T18:22:49.310Z,71.23
2019-03-10T18:25:17.864Z,71.53
2019-03-10T18:27:46.305Z,71.29
2019-03-10T18:30:19.861Z,71.47
2019-03-10T18:32:48.373Z,71.76
2019-03-10T18:35:16.892Z,71.76
2019-03-10T18:37:46.023Z,71.80
2019-03-10T18:40:21.412Z,71.80
2019-03-10T18:42:49.891Z,71.82
2019-03-10T18:45:19.586Z,71.93
2019-03-10T18:47:48.086Z,72.00
2019-03-10T18:50:18.459Z,72.23
2019-03-10T18:52:47.007Z,72.08
2019-03-10T18:55:16.823Z,72.20
2019-03-10T18:57:45.282Z,72.31
2019-03-10T19:00:24.848Z,72.37
2019-03-10T19:02:55.127Z,72.42
2019-03-10T19:05:23.653Z,72.54
2019-03-10T19:07:52.149Z,72.60
2019-03-10T19:10:20.618Z,72.39
2019-03-10T19:12:49.071Z,72.37
2019-03-10T19:15:24.723Z,72.67
2019-03-10T19:17:53.230Z,72.91
2019-03-10T19:20:21.694Z,73.52
2019-03-10T19:22:50.174Z,73.35
2019-03-10T19:25:19.653Z,73.04
2019-03-10T19:27:48.099Z,72.50
2019-03-10T19:30:21.220Z,72.33
2019-03-10T19:32:49.694Z,71.08
2019-03-10T19:35:18.239Z,70.91
2019-03-10T19:37:46.721Z,70.99
2019-03-10T19:40:18.982Z,71.26
2019-03-10T19:42:47.453Z,71.68
2019-03-10T19:45:18.141Z,71.87
2019-03-10T19:47:46.591Z,72.21
2019-03-10T19:50:17.554Z,72.45
2019-03-10T19:52:46.051Z,72.64
2019-03-10T19:55:15.894Z,72.98
2019-03-10T19:57:44.344Z,72.97
2019-03-10T20:00:15.549Z,72.96
2019-03-10T20:02:43.993Z,72.69
2019-03-10T20:05:12.980Z,72.49
2019-03-10T20:07:41.456Z,72.52
2019-03-10T20:10:21.415Z,72.72
2019-03-10T20:12:49.968Z,72.88
2019-03-10T20:15:19.746Z,73.04
2019-03-10T20:17:48.205Z,73.19
2019-03-10T20:20:27.643Z,73.28
2019-03-10T20:22:56.163Z,73.31
2019-03-10T20:25:24.606Z,73.61
2019-03-10T20:27:53.093Z,73.68
2019-03-10T20:30:22.685Z,73.83
2019-03-10T20:32:51.206Z,73.78
2019-03-10T20:35:19.718Z,73.79
2019-03-10T20:37:48.135Z,73.68
2019-03-10T20:40:22.693Z,73.63
2019-03-10T20:42:51.645Z,73.20
2019-03-10T20:45:20.159Z,73.20
2019-03-10T20:47:48.690Z,73.31
2019-03-10T20:50:19.271Z,73.27
2019-03-10T20:52:47.736Z,73.21
2019-03-10T20:55:16.373Z,73.14
2019-03-10T20:57:45.235Z,73.21
2019-03-10T21:00:27.945Z,73.27
2019-03-10T21:02:56.434Z,73.33
2019-03-10T21:05:24.889Z,73.60
2019-03-10T21:07:53.363Z,73.60
2019-03-10T21:10:23.074Z,73.77
2019-03-10T21:12:51.533Z,73.94
2019-03-10T21:15:22.176Z,74.16
2019-03-10T21:17:50.733Z,74.21
2019-03-10T21:20:20.329Z,74.34
2019-03-10T21:22:48.787Z,74.74
2019-03-10T21:25:20.083Z,74.74
2019-03-10T21:27:48.539Z,74.62
2019-03-10T21:30:22.432Z,74.68
2019-03-10T21:32:50.943Z,74.85
2019-03-10T21:35:19.397Z,74.92
2019-03-10T21:37:47.858Z,75.07
2019-03-10T21:40:19.166Z,75.13
2019-03-10T21:42:47.641Z,75.19
2019-03-10T21:45:16.330Z,75.60
2019-03-10T21:47:44.850Z,75.60
2019-03-10T21:50:15.339Z,75.11
2019-03-10T21:52:43.789Z,75.27
2019-03-10T21:55:13.742Z,75.41
2019-03-10T21:57:42.381Z,75.50
2019-03-10T22:00:17.091Z,75.52
2019-03-10T22:02:45.642Z,75.73
2019-03-10T22:05:15.251Z,75.73
2019-03-10T22:07:43.875Z,75.82
2019-03-10T22:10:26.373Z,75.79
2019-03-10T22:12:47.421Z,75.94
2019-03-10T22:15:19.068Z,75.90
2019-03-10T22:17:47.630Z,76.30
2019-03-10T22:20:19.811Z,76.67
2019-03-10T22:22:49.844Z,76.51
2019-03-10T22:25:19.788Z,76.83
2019-03-10T22:27:48.309Z,76.83
2019-03-10T22:30:18.774Z,77.24
2019-03-10T22:32:47.267Z,77.46
2019-03-10T22:35:15.778Z,77.46
2019-03-10T22:37:44.237Z,77.98
2019-03-10T22:40:17.938Z,77.98
2019-03-10T22:42:46.392Z,77.68
2019-03-10T22:45:19.827Z,77.70
2019-03-10T22:47:48.372Z,77.73
2019-03-10T22:50:17.695Z,77.81
2019-03-10T22:52:46.514Z,77.91
2019-03-10T22:55:15.758Z,77.85
2019-03-10T22:57:44.212Z,77.86
2019-03-10T23:00:18.154Z,77.87
2019-03-10T23:02:47.022Z,77.82
2019-03-10T23:05:15.553Z,77.83
2019-03-10T23:07:44.092Z,77.63
2019-03-10T23:10:14.486Z,77.53
2019-03-10T23:12:42.941Z,77.49
2019-03-10T23:15:13.325Z,77.39
2019-03-10T23:17:41.826Z,77.30
2019-03-10T23:20:14.702Z,77.14
2019-03-10T23:22:43.143Z,76.94
2019-03-10T23:25:11.780Z,76.73
2019-03-10T23:27:40.419Z,76.10
2019-03-10T23:30:12.329Z,75.98
2019-03-10T23:32:40.816Z,75.50
2019-03-10T23:35:09.346Z,75.05
2019-03-10T23:37:37.785Z,74.86
2019-03-10T23:40:08.981Z,74.93
2019-03-10T23:42:37.442Z,74.56
2019-03-10T23:45:11.314Z,74.14
2019-03-10T23:47:39.811Z,74.31
2019-03-10T23:50:10.417Z,74.20
2019-03-10T23:52:38.865Z,74.18
2019-03-10T23:55:09.388Z,74.30
2019-03-10T23:57:37.839Z,74.49
